sensor_id;sensor_type;location;lat;lon;timestamp;temperature;humidity
24412;DHT22;12544;46.760;15.942;2022-10-16T00:02:01;12.40;99.90
24412;DHT22;12544;46.760;15.942;2022-10-16T00:04:27;12.40;99.90
24412;DHT22;12544;46.760;15.942;2022-10-16T00:10:39;12.30;99.90
24412;DHT22;12544;46.760;15.942;2022-10-16T00:13:05;12.30;99.90
24412;DHT22;12544;46.760;15.942;2022-10-16T00:15:34;12.30;99.90
24412;DHT22;12544;46.760;15.942;2022-10-16T00:18:02;12.30;99.90
24412;DHT22;12544;46.760;15.942;2022-10-16T00:20:28;12.30;99.90
24412;DHT22;12544;46.760;15.942;2022-10-16T00:22:54;12.30;99.90
24412;DHT22;12544;46.760;15.942;2022-10-16T00:25:19;12.40;99.90
24412;DHT22;12544;46.760;15.942;2022-10-16T00:28:00;12.40;99.90
24412;DHT22;12544;46.760;15.942;2022-10-16T00:30:26;12.50;99.90
24412;DHT22;12544;46.760;15.942;2022-10-16T00:32:53;12.60;99.90
24412;DHT22;12544;46.760;15.942;2022-10-16T00:35:18;12.60;99.90
24412;DHT22;12544;46.760;15.942;2022-10-16T00:37:44;12.60;99.90
24412;DHT22;12544;46.760;15.942;2022-10-16T00:40:10;12.70;99.90
24412;DHT22;12544;46.760;15.942;2022-10-16T00:42:35;12.70;99.90
24412;DHT22;12544;46.760;15.942;2022-10-16T00:45:02;12.80;99.90
24412;DHT22;12544;46.760;15.942;2022-10-16T00:47:31;12.80;99.90
24412;DHT22;12544;46.760;15.942;2022-10-16T00:50:18;12.80;99.90
24412;DHT22;12544;46.760;15.942;2022-10-16T00:52:48;12.80;99.90
24412;DHT22;12544;46.760;15.942;2022-10-16T00:55:15;12.80;99.90
24412;DHT22;12544;46.760;15.942;2022-10-16T00:57:42;12.80;99.90
24412;DHT22;12544;46.760;15.942;2022-10-16T01:00:15;12.80;99.90
24412;DHT22;12544;46.760;15.942;2022-10-16T01:02:41;12.80;99.90
24412;DHT22;12544;46.760;15.942;2022-10-16T01:05:07;12.80;99.90
24412;DHT22;12544;46.760;15.942;2022-10-16T01:10:17;12.80;99.90
24412;DHT22;12544;46.760;15.942;2022-10-16T01:25:59;12.80;99.90
24412;DHT22;12544;46.760;15.942;2022-10-16T01:28:40;12.80;99.90
24412;DHT22;12544;46.760;15.942;2022-10-16T01:31:09;12.70;99.90
24412;DHT22;12544;46.760;15.942;2022-10-16T01:33:45;12.70;99.90
24412;DHT22;12544;46.760;15.942;2022-10-16T01:36:28;12.70;99.90
24412;DHT22;12544;46.760;15.942;2022-10-16T01:42:24;12.70;99.90
24412;DHT22;12544;46.760;15.942;2022-10-16T01:44:55;12.70;99.90
24412;DHT22;12544;46.760;15.942;2022-10-16T01:47:23;12.60;99.90
24412;DHT22;12544;46.760;15.942;2022-10-16T01:49:50;12.60;99.90
24412;DHT22;12544;46.760;15.942;2022-10-16T01:52:19;12.60;99.90
24412;DHT22;12544;46.760;15.942;2022-10-16T01:54:59;12.60;99.90
24412;DHT22;12544;46.760;15.942;2022-10-16T01:57:28;12.50;99.90
24412;DHT22;12544;46.760;15.942;2022-10-16T01:59:57;12.50;99.90
24412;DHT22;12544;46.760;15.942;2022-10-16T02:02:27;12.50;99.90
24412;DHT22;12544;46.760;15.942;2022-10-16T02:07:53;12.50;99.90
24412;DHT22;12544;46.760;15.942;2022-10-16T02:10:20;12.50;99.90
24412;DHT22;12544;46.760;15.942;2022-10-16T02:12:52;12.50;99.90
24412;DHT22;12544;46.760;15.942;2022-10-16T02:15:19;12.50;99.90
24412;DHT22;12544;46.760;15.942;2022-10-16T02:17:44;12.50;99.90
24412;DHT22;12544;46.760;15.942;2022-10-16T02:20:10;12.50;99.90
24412;DHT22;12544;46.760;15.942;2022-10-16T02:22:39;12.50;99.90
24412;DHT22;12544;46.760;15.942;2022-10-16T02:25:30;12.50;99.90
24412;DHT22;12544;46.760;15.942;2022-10-16T02:28:03;12.50;99.90
24412;DHT22;12544;46.760;15.942;2022-10-16T02:31:11;12.60;99.90
24412;DHT22;12544;46.760;15.942;2022-10-16T02:33:40;12.60;99.90
24412;DHT22;12544;46.760;15.942;2022-10-16T02:36:07;12.60;99.90
24412;DHT22;12544;46.760;15.942;2022-10-16T02:38:34;12.60;99.90
24412;DHT22;12544;46.760;15.942;2022-10-16T02:41:00;12.70;99.90
24412;DHT22;12544;46.760;15.942;2022-10-16T02:43:25;12.70;99.90
24412;DHT22;12544;46.760;15.942;2022-10-16T02:45:51;12.70;99.90
24412;DHT22;12544;46.760;15.942;2022-10-16T02:48:17;12.70;99.90
24412;DHT22;12544;46.760;15.942;2022-10-16T02:50:43;12.80;99.90
24412;DHT22;12544;46.760;15.942;2022-10-16T02:56:27;12.80;99.90
24412;DHT22;12544;46.760;15.942;2022-10-16T02:58:52;12.80;99.90
24412;DHT22;12544;46.760;15.942;2022-10-16T03:01:18;12.70;99.90
24412;DHT22;12544;46.760;15.942;2022-10-16T03:03:44;12.70;99.90
24412;DHT22;12544;46.760;15.942;2022-10-16T03:06:09;12.80;99.90
24412;DHT22;12544;46.760;15.942;2022-10-16T03:08:35;12.70;99.90
24412;DHT22;12544;46.760;15.942;2022-10-16T03:11:00;12.70;99.90
24412;DHT22;12544;46.760;15.942;2022-10-16T03:13:26;12.70;99.90
24412;DHT22;12544;46.760;15.942;2022-10-16T03:15:53;12.70;99.90
24412;DHT22;12544;46.760;15.942;2022-10-16T03:18:18;12.60;99.90
24412;DHT22;12544;46.760;15.942;2022-10-16T03:20:44;12.60;99.90
24412;DHT22;12544;46.760;15.942;2022-10-16T03:23:10;12.60;99.90
24412;DHT22;12544;46.760;15.942;2022-10-16T03:25:35;12.60;99.90
24412;DHT22;12544;46.760;15.942;2022-10-16T03:28:11;12.60;99.90
24412;DHT22;12544;46.760;15.942;2022-10-16T03:30:36;12.60;99.90
24412;DHT22;12544;46.760;15.942;2022-10-16T03:33:02;12.60;99.90
24412;DHT22;12544;46.760;15.942;2022-10-16T03:35:28;12.60;99.90
24412;DHT22;12544;46.760;15.942;2022-10-16T03:37:53;12.60;99.90
24412;DHT22;12544;46.760;15.942;2022-10-16T03:40:49;12.70;99.90
24412;DHT22;12544;46.760;15.942;2022-10-16T03:43:15;12.70;99.90
24412;DHT22;12544;46.760;15.942;2022-10-16T03:45:41;12.70;99.90
24412;DHT22;12544;46.760;15.942;2022-10-16T03:48:06;12.70;99.90
24412;DHT22;12544;46.760;15.942;2022-10-16T03:50:32;12.70;99.90
24412;DHT22;12544;46.760;15.942;2022-10-16T03:53:06;12.70;99.90
24412;DHT22;12544;46.760;15.942;2022-10-16T03:55:31;12.80;99.90
24412;DHT22;12544;46.760;15.942;2022-10-16T03:57:57;12.80;99.90
24412;DHT22;12544;46.760;15.942;2022-10-16T04:00:22;12.80;99.90
24412;DHT22;12544;46.760;15.942;2022-10-16T04:02:48;12.80;99.90
24412;DHT22;12544;46.760;15.942;2022-10-16T04:05:14;12.70;99.90
24412;DHT22;12544;46.760;15.942;2022-10-16T04:07:39;12.80;99.90
24412;DHT22;12544;46.760;15.942;2022-10-16T04:10:05;12.70;99.90
24412;DHT22;12544;46.760;15.942;2022-10-16T04:12:31;12.80;99.90
24412;DHT22;12544;46.760;15.942;2022-10-16T04:14:56;12.80;99.90
24412;DHT22;12544;46.760;15.942;2022-10-16T04:17:22;12.80;99.90
24412;DHT22;12544;46.760;15.942;2022-10-16T04:19:48;12.90;99.90
24412;DHT22;12544;46.760;15.942;2022-10-16T04:25:35;12.90;99.90
24412;DHT22;12544;46.760;15.942;2022-10-16T04:28:01;12.80;99.90
24412;DHT22;12544;46.760;15.942;2022-10-16T04:30:26;12.80;99.90
24412;DHT22;12544;46.760;15.942;2022-10-16T04:32:52;12.80;99.90
24412;DHT22;12544;46.760;15.942;2022-10-16T04:35:19;12.80;99.90
24412;DHT22;12544;46.760;15.942;2022-10-16T04:37:45;12.80;99.90
24412;DHT22;12544;46.760;15.942;2022-10-16T04:40:11;12.80;99.90
24412;DHT22;12544;46.760;15.942;2022-10-16T04:42:37;12.80;99.90
24412;DHT22;12544;46.760;15.942;2022-10-16T04:45:04;12.80;99.90
24412;DHT22;12544;46.760;15.942;2022-10-16T04:47:30;12.80;99.90
24412;DHT22;12544;46.760;15.942;2022-10-16T04:49:56;12.80;99.90
24412;DHT22;12544;46.760;15.942;2022-10-16T04:52:22;12.80;99.90
24412;DHT22;12544;46.760;15.942;2022-10-16T05:01:33;12.90;99.90
24412;DHT22;12544;46.760;15.942;2022-10-16T05:03:58;12.80;99.90
24412;DHT22;12544;46.760;15.942;2022-10-16T05:06:39;12.90;99.90
24412;DHT22;12544;46.760;15.942;2022-10-16T05:09:06;12.80;99.90
24412;DHT22;12544;46.760;15.942;2022-10-16T05:11:32;12.90;99.90
24412;DHT22;12544;46.760;15.942;2022-10-16T05:13:58;12.80;99.90
24412;DHT22;12544;46.760;15.942;2022-10-16T05:16:23;12.80;99.90
24412;DHT22;12544;46.760;15.942;2022-10-16T05:18:49;12.90;99.90
24412;DHT22;12544;46.760;15.942;2022-10-16T05:21:16;12.80;99.90
24412;DHT22;12544;46.760;15.942;2022-10-16T05:23:41;12.80;99.90
24412;DHT22;12544;46.760;15.942;2022-10-16T05:26:07;12.70;99.90
24412;DHT22;12544;46.760;15.942;2022-10-16T05:28:34;12.70;99.90
24412;DHT22;12544;46.760;15.942;2022-10-16T05:31:07;12.70;99.90
24412;DHT22;12544;46.760;15.942;2022-10-16T05:33:32;12.70;99.90
24412;DHT22;12544;46.760;15.942;2022-10-16T05:36:06;12.60;99.90
24412;DHT22;12544;46.760;15.942;2022-10-16T05:38:36;12.60;99.90
24412;DHT22;12544;46.760;15.942;2022-10-16T05:41:03;12.60;99.90
24412;DHT22;12544;46.760;15.942;2022-10-16T05:43:29;12.60;99.90
24412;DHT22;12544;46.760;15.942;2022-10-16T05:45:56;12.60;99.90
24412;DHT22;12544;46.760;15.942;2022-10-16T05:48:23;12.60;99.90
24412;DHT22;12544;46.760;15.942;2022-10-16T05:50:56;12.70;99.90
24412;DHT22;12544;46.760;15.942;2022-10-16T05:53:22;12.70;99.90
24412;DHT22;12544;46.760;15.942;2022-10-16T05:55:54;12.70;99.90
24412;DHT22;12544;46.760;15.942;2022-10-16T05:58:21;12.70;99.90
24412;DHT22;12544;46.760;15.942;2022-10-16T06:00:58;12.70;99.90
24412;DHT22;12544;46.760;15.942;2022-10-16T06:06:45;12.70;99.90
24412;DHT22;12544;46.760;15.942;2022-10-16T06:09:11;12.80;99.90
24412;DHT22;12544;46.760;15.942;2022-10-16T06:11:37;12.80;99.90
24412;DHT22;12544;46.760;15.942;2022-10-16T06:14:02;12.90;99.90
24412;DHT22;12544;46.760;15.942;2022-10-16T06:16:34;12.90;99.90
24412;DHT22;12544;46.760;15.942;2022-10-16T06:19:00;12.90;99.90
24412;DHT22;12544;46.760;15.942;2022-10-16T06:21:27;13.00;99.90
24412;DHT22;12544;46.760;15.942;2022-10-16T06:23:54;13.00;99.90
24412;DHT22;12544;46.760;15.942;2022-10-16T06:26:22;13.00;99.90
24412;DHT22;12544;46.760;15.942;2022-10-16T06:32:10;13.10;99.90
24412;DHT22;12544;46.760;15.942;2022-10-16T06:34:35;13.20;99.90
24412;DHT22;12544;46.760;15.942;2022-10-16T06:37:01;13.20;99.90
24412;DHT22;12544;46.760;15.942;2022-10-16T06:42:48;13.20;99.90
24412;DHT22;12544;46.760;15.942;2022-10-16T06:45:14;13.20;99.90
24412;DHT22;12544;46.760;15.942;2022-10-16T06:47:39;13.20;99.90
24412;DHT22;12544;46.760;15.942;2022-10-16T06:50:05;13.20;99.90
24412;DHT22;12544;46.760;15.942;2022-10-16T06:52:36;13.20;99.90
24412;DHT22;12544;46.760;15.942;2022-10-16T06:55:01;13.20;99.90
24412;DHT22;12544;46.760;15.942;2022-10-16T06:57:28;13.30;99.90
24412;DHT22;12544;46.760;15.942;2022-10-16T06:59:54;13.20;99.90
24412;DHT22;12544;46.760;15.942;2022-10-16T07:02:19;13.20;99.90
24412;DHT22;12544;46.760;15.942;2022-10-16T07:04:45;13.30;99.90
24412;DHT22;12544;46.760;15.942;2022-10-16T07:07:10;13.20;99.90
24412;DHT22;12544;46.760;15.942;2022-10-16T07:09:36;13.20;99.90
24412;DHT22;12544;46.760;15.942;2022-10-16T07:12:02;13.20;99.90
24412;DHT22;12544;46.760;15.942;2022-10-16T07:14:27;13.20;99.90
24412;DHT22;12544;46.760;15.942;2022-10-16T07:16:53;13.20;99.90
24412;DHT22;12544;46.760;15.942;2022-10-16T07:22:41;13.20;99.90
24412;DHT22;12544;46.760;15.942;2022-10-16T07:25:07;13.20;99.90
24412;DHT22;12544;46.760;15.942;2022-10-16T07:27:32;13.20;99.90
24412;DHT22;12544;46.760;15.942;2022-10-16T07:33:21;13.30;99.90
24412;DHT22;12544;46.760;15.942;2022-10-16T07:35:54;13.30;99.90
24412;DHT22;12544;46.760;15.942;2022-10-16T07:38:21;13.30;99.90
24412;DHT22;12544;46.760;15.942;2022-10-16T07:40:48;13.40;99.90
24412;DHT22;12544;46.760;15.942;2022-10-16T07:43:14;13.40;99.90
24412;DHT22;12544;46.760;15.942;2022-10-16T07:45:49;13.40;99.90
24412;DHT22;12544;46.760;15.942;2022-10-16T07:48:16;13.50;99.90
24412;DHT22;12544;46.760;15.942;2022-10-16T07:50:42;13.50;99.90
24412;DHT22;12544;46.760;15.942;2022-10-16T07:53:08;13.50;99.90
24412;DHT22;12544;46.760;15.942;2022-10-16T07:55:33;13.50;99.90
24412;DHT22;12544;46.760;15.942;2022-10-16T07:57:59;13.50;99.90
24412;DHT22;12544;46.760;15.942;2022-10-16T08:00:25;13.50;99.90
24412;DHT22;12544;46.760;15.942;2022-10-16T08:03:00;13.50;99.90
24412;DHT22;12544;46.760;15.942;2022-10-16T08:05:27;13.50;99.90
24412;DHT22;12544;46.760;15.942;2022-10-16T08:07:53;13.60;99.90
24412;DHT22;12544;46.760;15.942;2022-10-16T08:10:20;13.60;99.90
24412;DHT22;12544;46.760;15.942;2022-10-16T08:12:46;13.70;99.90
24412;DHT22;12544;46.760;15.942;2022-10-16T08:15:11;13.80;99.90
24412;DHT22;12544;46.760;15.942;2022-10-16T08:17:37;13.90;99.90
24412;DHT22;12544;46.760;15.942;2022-10-16T08:20:03;14.00;99.90
24412;DHT22;12544;46.760;15.942;2022-10-16T08:22:29;14.10;99.90
24412;DHT22;12544;46.760;15.942;2022-10-16T08:24:55;14.30;99.90
24412;DHT22;12544;46.760;15.942;2022-10-16T08:27:40;14.50;99.90
24412;DHT22;12544;46.760;15.942;2022-10-16T08:30:06;14.70;99.90
24412;DHT22;12544;46.760;15.942;2022-10-16T08:32:32;14.70;99.90
24412;DHT22;12544;46.760;15.942;2022-10-16T08:34:57;14.90;99.90
24412;DHT22;12544;46.760;15.942;2022-10-16T08:37:23;15.00;99.90
24412;DHT22;12544;46.760;15.942;2022-10-16T08:39:48;15.10;99.90
24412;DHT22;12544;46.760;15.942;2022-10-16T08:49:59;15.40;99.90
24412;DHT22;12544;46.760;15.942;2022-10-16T08:52:32;15.60;99.90
24412;DHT22;12544;46.760;15.942;2022-10-16T08:55:01;15.70;99.90
24412;DHT22;12544;46.760;15.942;2022-10-16T08:57:27;15.70;99.90
24412;DHT22;12544;46.760;15.942;2022-10-16T08:59:53;15.80;99.90
24412;DHT22;12544;46.760;15.942;2022-10-16T09:02:26;15.80;99.90
24412;DHT22;12544;46.760;15.942;2022-10-16T09:15:56;16.40;99.90
24412;DHT22;12544;46.760;15.942;2022-10-16T09:21:35;16.60;99.90
24412;DHT22;12544;46.760;15.942;2022-10-16T09:27:01;16.80;99.90
24412;DHT22;12544;46.760;15.942;2022-10-16T09:29:27;17.00;99.90
24412;DHT22;12544;46.760;15.942;2022-10-16T09:31:55;17.10;99.90
24412;DHT22;12544;46.760;15.942;2022-10-16T09:36:55;17.30;99.90
24412;DHT22;12544;46.760;15.942;2022-10-16T09:39:22;17.40;99.90
24412;DHT22;12544;46.760;15.942;2022-10-16T09:41:48;17.50;99.90
24412;DHT22;12544;46.760;15.942;2022-10-16T09:44:26;17.50;99.90
24412;DHT22;12544;46.760;15.942;2022-10-16T09:47:13;17.60;99.90
24412;DHT22;12544;46.760;15.942;2022-10-16T09:49:51;17.80;99.90
24412;DHT22;12544;46.760;15.942;2022-10-16T09:52:18;17.90;99.90
24412;DHT22;12544;46.760;15.942;2022-10-16T09:54:54;18.00;99.90
24412;DHT22;12544;46.760;15.942;2022-10-16T09:57:20;18.20;99.90
24412;DHT22;12544;46.760;15.942;2022-10-16T09:59:51;18.30;99.90
24412;DHT22;12544;46.760;15.942;2022-10-16T10:02:36;18.50;99.90
24412;DHT22;12544;46.760;15.942;2022-10-16T10:05:17;18.80;99.90
24412;DHT22;12544;46.760;15.942;2022-10-16T10:07:44;19.00;99.90
24412;DHT22;12544;46.760;15.942;2022-10-16T10:10:26;19.10;99.90
24412;DHT22;12544;46.760;15.942;2022-10-16T10:12:53;19.20;99.90
24412;DHT22;12544;46.760;15.942;2022-10-16T10:15:20;19.40;99.90
24412;DHT22;12544;46.760;15.942;2022-10-16T10:17:55;19.40;99.90
24412;DHT22;12544;46.760;15.942;2022-10-16T10:20:28;19.70;99.90
24412;DHT22;12544;46.760;15.942;2022-10-16T10:22:55;19.90;99.90
24412;DHT22;12544;46.760;15.942;2022-10-16T10:25:39;20.10;99.90
24412;DHT22;12544;46.760;15.942;2022-10-16T10:33:48;20.70;99.90
24412;DHT22;12544;46.760;15.942;2022-10-16T10:36:36;20.70;99.90
24412;DHT22;12544;46.760;15.942;2022-10-16T10:39:12;20.80;99.90
24412;DHT22;12544;46.760;15.942;2022-10-16T10:56:15;21.10;99.90
24412;DHT22;12544;46.760;15.942;2022-10-16T11:03:59;21.00;99.90
24412;DHT22;12544;46.760;15.942;2022-10-16T11:06:44;20.90;99.90
24412;DHT22;12544;46.760;15.942;2022-10-16T11:09:27;21.10;99.90
24412;DHT22;12544;46.760;15.942;2022-10-16T11:17:40;21.70;99.90
24412;DHT22;12544;46.760;15.942;2022-10-16T11:20:20;21.80;99.90
24412;DHT22;12544;46.760;15.942;2022-10-16T11:25:35;21.90;99.90
24412;DHT22;12544;46.760;15.942;2022-10-16T11:28:25;21.90;99.90
24412;DHT22;12544;46.760;15.942;2022-10-16T11:31:03;22.00;99.90
24412;DHT22;12544;46.760;15.942;2022-10-16T11:33:41;22.10;99.90
24412;DHT22;12544;46.760;15.942;2022-10-16T11:36:39;22.20;99.90
24412;DHT22;12544;46.760;15.942;2022-10-16T11:49:37;22.70;99.90
24412;DHT22;12544;46.760;15.942;2022-10-16T11:52:16;22.70;99.90
24412;DHT22;12544;46.760;15.942;2022-10-16T11:54:54;22.70;99.90
24412;DHT22;12544;46.760;15.942;2022-10-16T11:57:24;22.70;99.90
24412;DHT22;12544;46.760;15.942;2022-10-16T12:06:11;23.00;99.90
24412;DHT22;12544;46.760;15.942;2022-10-16T12:08:38;23.00;99.90
24412;DHT22;12544;46.760;15.942;2022-10-16T12:14:03;23.20;99.90
24412;DHT22;12544;46.760;15.942;2022-10-16T12:16:28;23.20;99.90
24412;DHT22;12544;46.760;15.942;2022-10-16T12:19:14;23.20;99.90
24412;DHT22;12544;46.760;15.942;2022-10-16T12:22:01;23.30;99.90
24412;DHT22;12544;46.760;15.942;2022-10-16T12:24:55;23.30;99.90
24412;DHT22;12544;46.760;15.942;2022-10-16T12:27:29;23.20;99.90
24412;DHT22;12544;46.760;15.942;2022-10-16T12:30:03;23.10;99.90
24412;DHT22;12544;46.760;15.942;2022-10-16T12:32:37;23.10;99.90
24412;DHT22;12544;46.760;15.942;2022-10-16T12:35:06;23.10;99.90
24412;DHT22;12544;46.760;15.942;2022-10-16T12:37:42;23.10;99.90
24412;DHT22;12544;46.760;15.942;2022-10-16T12:40:30;23.20;99.90
24412;DHT22;12544;46.760;15.942;2022-10-16T12:42:57;23.30;99.90
24412;DHT22;12544;46.760;15.942;2022-10-16T12:45:33;23.30;99.90
24412;DHT22;12544;46.760;15.942;2022-10-16T12:48:01;23.30;99.90
24412;DHT22;12544;46.760;15.942;2022-10-16T12:50:31;23.30;99.90
24412;DHT22;12544;46.760;15.942;2022-10-16T12:52:58;23.40;99.90
24412;DHT22;12544;46.760;15.942;2022-10-16T12:55:25;23.50;99.90
24412;DHT22;12544;46.760;15.942;2022-10-16T13:00:45;23.60;99.90
24412;DHT22;12544;46.760;15.942;2022-10-16T13:06:27;23.60;99.90
24412;DHT22;12544;46.760;15.942;2022-10-16T13:12:16;23.70;99.90
24412;DHT22;12544;46.760;15.942;2022-10-16T13:17:50;23.90;99.90
24412;DHT22;12544;46.760;15.942;2022-10-16T13:26:00;23.60;99.90
24412;DHT22;12544;46.760;15.942;2022-10-16T13:28:33;23.50;99.90
24412;DHT22;12544;46.760;15.942;2022-10-16T13:31:01;23.30;99.90
24412;DHT22;12544;46.760;15.942;2022-10-16T13:33:45;23.30;99.90
24412;DHT22;12544;46.760;15.942;2022-10-16T13:36:21;23.50;99.90
24412;DHT22;12544;46.760;15.942;2022-10-16T13:38:47;23.50;99.90
24412;DHT22;12544;46.760;15.942;2022-10-16T13:41:17;23.50;99.90
24412;DHT22;12544;46.760;15.942;2022-10-16T13:43:51;23.30;99.90
24412;DHT22;12544;46.760;15.942;2022-10-16T13:46:19;23.20;99.90
24412;DHT22;12544;46.760;15.942;2022-10-16T13:49:14;23.00;99.90
24412;DHT22;12544;46.760;15.942;2022-10-16T13:52:02;22.90;99.90
24412;DHT22;12544;46.760;15.942;2022-10-16T13:54:28;22.80;99.90
24412;DHT22;12544;46.760;15.942;2022-10-16T13:57:05;22.70;99.90
24412;DHT22;12544;46.760;15.942;2022-10-16T13:59:40;22.70;99.90
24412;DHT22;12544;46.760;15.942;2022-10-16T14:02:29;22.60;99.90
24412;DHT22;12544;46.760;15.942;2022-10-16T14:04:56;22.70;99.90
24412;DHT22;12544;46.760;15.942;2022-10-16T14:07:29;22.90;99.90
24412;DHT22;12544;46.760;15.942;2022-10-16T14:10:00;23.00;99.90
24412;DHT22;12544;46.760;15.942;2022-10-16T14:12:27;23.20;99.90
24412;DHT22;12544;46.760;15.942;2022-10-16T14:14:54;23.40;99.90
24412;DHT22;12544;46.760;15.942;2022-10-16T14:17:24;23.50;99.90
24412;DHT22;12544;46.760;15.942;2022-10-16T14:19:53;23.70;99.90
24412;DHT22;12544;46.760;15.942;2022-10-16T14:22:39;23.80;99.90
24412;DHT22;12544;46.760;15.942;2022-10-16T14:25:29;24.00;99.90
24412;DHT22;12544;46.760;15.942;2022-10-16T14:28:23;24.10;99.90
24412;DHT22;12544;46.760;15.942;2022-10-16T14:30:59;24.20;99.90
24412;DHT22;12544;46.760;15.942;2022-10-16T14:36:14;24.30;99.90
24412;DHT22;12544;46.760;15.942;2022-10-16T14:38:57;24.30;99.90
24412;DHT22;12544;46.760;15.942;2022-10-16T14:41:23;24.30;99.90
24412;DHT22;12544;46.760;15.942;2022-10-16T14:43:52;24.30;99.90
24412;DHT22;12544;46.760;15.942;2022-10-16T14:46:28;24.20;99.90
24412;DHT22;12544;46.760;15.942;2022-10-16T14:49:19;24.10;99.90
24412;DHT22;12544;46.760;15.942;2022-10-16T14:51:46;24.10;99.90
24412;DHT22;12544;46.760;15.942;2022-10-16T14:54:13;24.10;99.90
24412;DHT22;12544;46.760;15.942;2022-10-16T14:56:58;24.00;99.90
24412;DHT22;12544;46.760;15.942;2022-10-16T14:59:35;24.00;99.90
24412;DHT22;12544;46.760;15.942;2022-10-16T15:04:50;23.80;99.90
24412;DHT22;12544;46.760;15.942;2022-10-16T15:07:21;23.80;99.90
24412;DHT22;12544;46.760;15.942;2022-10-16T15:09:47;23.70;99.90
24412;DHT22;12544;46.760;15.942;2022-10-16T15:12:12;23.60;99.90
24412;DHT22;12544;46.760;15.942;2022-10-16T15:14:38;23.50;99.90
24412;DHT22;12544;46.760;15.942;2022-10-16T15:17:04;23.30;99.90
24412;DHT22;12544;46.760;15.942;2022-10-16T15:19:30;23.20;99.90
24412;DHT22;12544;46.760;15.942;2022-10-16T15:21:56;22.80;99.90
24412;DHT22;12544;46.760;15.942;2022-10-16T15:24:22;22.70;99.90
24412;DHT22;12544;46.760;15.942;2022-10-16T15:26:47;22.50;99.90
24412;DHT22;12544;46.760;15.942;2022-10-16T15:29:15;22.30;99.90
24412;DHT22;12544;46.760;15.942;2022-10-16T15:31:48;22.20;99.90
24412;DHT22;12544;46.760;15.942;2022-10-16T15:34:14;22.00;99.90
24412;DHT22;12544;46.760;15.942;2022-10-16T15:36:39;21.90;99.90
24412;DHT22;12544;46.760;15.942;2022-10-16T15:39:14;21.80;99.90
24412;DHT22;12544;46.760;15.942;2022-10-16T15:41:40;21.70;99.90
24412;DHT22;12544;46.760;15.942;2022-10-16T15:44:07;21.50;99.90
24412;DHT22;12544;46.760;15.942;2022-10-16T15:46:32;21.40;99.90
24412;DHT22;12544;46.760;15.942;2022-10-16T15:48:59;21.20;99.90
24412;DHT22;12544;46.760;15.942;2022-10-16T15:51:25;21.10;99.90
24412;DHT22;12544;46.760;15.942;2022-10-16T15:53:57;20.90;99.90
24412;DHT22;12544;46.760;15.942;2022-10-16T15:56:22;20.80;99.90
24412;DHT22;12544;46.760;15.942;2022-10-16T15:58:51;20.60;99.90
24412;DHT22;12544;46.760;15.942;2022-10-16T16:01:17;20.50;99.90
24412;DHT22;12544;46.760;15.942;2022-10-16T16:04:07;20.30;99.90
24412;DHT22;12544;46.760;15.942;2022-10-16T16:06:33;20.20;99.90
24412;DHT22;12544;46.760;15.942;2022-10-16T16:08:59;20.10;99.90
24412;DHT22;12544;46.760;15.942;2022-10-16T16:11:25;19.90;99.90
24412;DHT22;12544;46.760;15.942;2022-10-16T16:13:50;19.70;99.90
24412;DHT22;12544;46.760;15.942;2022-10-16T16:16:16;19.70;99.90
24412;DHT22;12544;46.760;15.942;2022-10-16T16:18:43;19.50;99.90
24412;DHT22;12544;46.760;15.942;2022-10-16T16:21:12;19.40;99.90
24412;DHT22;12544;46.760;15.942;2022-10-16T16:23:38;19.30;99.90
24412;DHT22;12544;46.760;15.942;2022-10-16T16:26:08;19.20;99.90
24412;DHT22;12544;46.760;15.942;2022-10-16T16:28:35;19.10;99.90
24412;DHT22;12544;46.760;15.942;2022-10-16T16:31:01;19.00;99.90
24412;DHT22;12544;46.760;15.942;2022-10-16T16:33:26;18.90;99.90
24412;DHT22;12544;46.760;15.942;2022-10-16T16:35:57;18.80;99.90
24412;DHT22;12544;46.760;15.942;2022-10-16T16:38:22;18.70;99.90
24412;DHT22;12544;46.760;15.942;2022-10-16T16:41:26;18.70;99.90
24412;DHT22;12544;46.760;15.942;2022-10-16T16:43:52;18.60;99.90
24412;DHT22;12544;46.760;15.942;2022-10-16T16:46:19;18.50;99.90
24412;DHT22;12544;46.760;15.942;2022-10-16T16:48:45;18.50;99.90
24412;DHT22;12544;46.760;15.942;2022-10-16T16:51:14;18.40;99.90
24412;DHT22;12544;46.760;15.942;2022-10-16T16:53:42;18.30;99.90
24412;DHT22;12544;46.760;15.942;2022-10-16T16:56:08;18.30;99.90
24412;DHT22;12544;46.760;15.942;2022-10-16T16:58:34;18.30;99.90
24412;DHT22;12544;46.760;15.942;2022-10-16T17:01:00;18.20;99.90
24412;DHT22;12544;46.760;15.942;2022-10-16T17:03:34;18.20;99.90
24412;DHT22;12544;46.760;15.942;2022-10-16T17:06:07;18.20;99.90
24412;DHT22;12544;46.760;15.942;2022-10-16T17:08:36;18.20;99.90
24412;DHT22;12544;46.760;15.942;2022-10-16T17:11:03;18.10;99.90
24412;DHT22;12544;46.760;15.942;2022-10-16T17:13:33;18.20;99.90
24412;DHT22;12544;46.760;15.942;2022-10-16T17:16:01;18.10;99.90
24412;DHT22;12544;46.760;15.942;2022-10-16T17:18:27;18.00;99.90
24412;DHT22;12544;46.760;15.942;2022-10-16T17:20:52;18.00;99.90
24412;DHT22;12544;46.760;15.942;2022-10-16T17:23:19;18.00;99.90
24412;DHT22;12544;46.760;15.942;2022-10-16T17:25:45;18.00;99.90
24412;DHT22;12544;46.760;15.942;2022-10-16T17:28:12;17.90;99.90
24412;DHT22;12544;46.760;15.942;2022-10-16T17:30:42;17.90;99.90
24412;DHT22;12544;46.760;15.942;2022-10-16T17:33:09;17.90;99.90
24412;DHT22;12544;46.760;15.942;2022-10-16T17:35:37;17.80;99.90
24412;DHT22;12544;46.760;15.942;2022-10-16T17:38:03;17.80;99.90
24412;DHT22;12544;46.760;15.942;2022-10-16T17:40:28;17.70;99.90
24412;DHT22;12544;46.760;15.942;2022-10-16T17:42:54;17.70;99.90
24412;DHT22;12544;46.760;15.942;2022-10-16T17:45:20;17.60;99.90
24412;DHT22;12544;46.760;15.942;2022-10-16T17:47:46;17.60;99.90
24412;DHT22;12544;46.760;15.942;2022-10-16T17:50:12;17.50;99.90
24412;DHT22;12544;46.760;15.942;2022-10-16T17:52:37;17.50;99.90
24412;DHT22;12544;46.760;15.942;2022-10-16T17:55:03;17.50;99.90
24412;DHT22;12544;46.760;15.942;2022-10-16T17:57:29;17.40;99.90
24412;DHT22;12544;46.760;15.942;2022-10-16T17:59:54;17.40;99.90
24412;DHT22;12544;46.760;15.942;2022-10-16T18:02:35;17.40;99.90
24412;DHT22;12544;46.760;15.942;2022-10-16T18:05:01;17.30;99.90
24412;DHT22;12544;46.760;15.942;2022-10-16T18:07:30;17.20;99.90
24412;DHT22;12544;46.760;15.942;2022-10-16T18:09:56;17.20;99.90
24412;DHT22;12544;46.760;15.942;2022-10-16T18:12:21;17.20;99.90